sensor_id;sensor_type;location;lat;lon;timestamp;temperature;humidity
46608;DHT22;32330;51.936;7.184;2023-07-30T00:02:20;17.00;99.90
46608;DHT22;32330;51.936;7.184;2023-07-30T00:04:47;17.00;99.90
46608;DHT22;32330;51.936;7.184;2023-07-30T00:07:14;17.00;99.90
46608;DHT22;32330;51.936;7.184;2023-07-30T00:09:43;17.00;99.90
46608;DHT22;32330;51.936;7.184;2023-07-30T00:12:10;17.00;99.90
46608;DHT22;32330;51.936;7.184;2023-07-30T00:14:37;16.90;99.90
46608;DHT22;32330;51.936;7.184;2023-07-30T00:17:04;16.90;99.70
46608;DHT22;32330;51.936;7.184;2023-07-30T00:19:31;16.90;98.90
46608;DHT22;32330;51.936;7.184;2023-07-30T00:21:59;16.90;99.80
46608;DHT22;32330;51.936;7.184;2023-07-30T00:24:25;16.80;99.30
46608;DHT22;32330;51.936;7.184;2023-07-30T00:26:54;16.80;99.90
46608;DHT22;32330;51.936;7.184;2023-07-30T00:29:21;16.80;99.90
46608;DHT22;32330;51.936;7.184;2023-07-30T00:31:48;16.80;99.90
46608;DHT22;32330;51.936;7.184;2023-07-30T00:34:15;16.80;99.90
46608;DHT22;32330;51.936;7.184;2023-07-30T00:36:42;16.80;99.90
46608;DHT22;32330;51.936;7.184;2023-07-30T00:39:09;16.80;99.10
46608;DHT22;32330;51.936;7.184;2023-07-30T00:41:37;16.80;99.10
46608;DHT22;32330;51.936;7.184;2023-07-30T00:44:06;16.80;98.70
46608;DHT22;32330;51.936;7.184;2023-07-30T00:46:34;16.70;99.10
46608;DHT22;32330;51.936;7.184;2023-07-30T00:49:03;16.70;99.40
46608;DHT22;32330;51.936;7.184;2023-07-30T00:51:31;16.70;99.10
46608;DHT22;32330;51.936;7.184;2023-07-30T00:54:00;16.60;99.80
46608;DHT22;32330;51.936;7.184;2023-07-30T00:56:27;16.70;99.90
46608;DHT22;32330;51.936;7.184;2023-07-30T00:58:54;16.60;99.90
46608;DHT22;32330;51.936;7.184;2023-07-30T01:01:23;16.60;99.90
46608;DHT22;32330;51.936;7.184;2023-07-30T01:03:50;16.60;99.90
46608;DHT22;32330;51.936;7.184;2023-07-30T01:06:17;16.60;99.90
46608;DHT22;32330;51.936;7.184;2023-07-30T01:08:45;16.50;99.90
46608;DHT22;32330;51.936;7.184;2023-07-30T01:11:13;16.50;99.90
46608;DHT22;32330;51.936;7.184;2023-07-30T01:13:41;16.50;99.90
46608;DHT22;32330;51.936;7.184;2023-07-30T01:16:08;16.50;99.90
46608;DHT22;32330;51.936;7.184;2023-07-30T01:18:37;16.50;99.90
46608;DHT22;32330;51.936;7.184;2023-07-30T01:21:05;16.50;99.90
46608;DHT22;32330;51.936;7.184;2023-07-30T01:23:32;16.50;99.90
46608;DHT22;32330;51.936;7.184;2023-07-30T01:26:02;16.50;99.90
46608;DHT22;32330;51.936;7.184;2023-07-30T01:28:37;16.40;99.90
46608;DHT22;32330;51.936;7.184;2023-07-30T01:31:06;16.30;99.90
46608;DHT22;32330;51.936;7.184;2023-07-30T01:33:34;16.30;99.90
46608;DHT22;32330;51.936;7.184;2023-07-30T01:36:02;16.30;99.90
46608;DHT22;32330;51.936;7.184;2023-07-30T01:38:31;16.30;99.90
46608;DHT22;32330;51.936;7.184;2023-07-30T01:40:59;16.30;99.90
46608;DHT22;32330;51.936;7.184;2023-07-30T01:43:26;16.30;99.90
46608;DHT22;32330;51.936;7.184;2023-07-30T01:45:53;16.20;99.60
46608;DHT22;32330;51.936;7.184;2023-07-30T01:48:20;16.20;99.10
46608;DHT22;32330;51.936;7.184;2023-07-30T01:50:47;16.20;98.70
46608;DHT22;32330;51.936;7.184;2023-07-30T01:53:14;16.20;97.80
46608;DHT22;32330;51.936;7.184;2023-07-30T01:55:43;16.20;97.60
46608;DHT22;32330;51.936;7.184;2023-07-30T01:58:12;16.10;97.60
46608;DHT22;32330;51.936;7.184;2023-07-30T02:00:39;16.10;96.70
46608;DHT22;32330;51.936;7.184;2023-07-30T02:03:06;16.00;96.30
46608;DHT22;32330;51.936;7.184;2023-07-30T02:05:34;16.00;96.00
46608;DHT22;32330;51.936;7.184;2023-07-30T02:08:01;16.00;95.80
46608;DHT22;32330;51.936;7.184;2023-07-30T02:10:30;16.00;96.10
46608;DHT22;32330;51.936;7.184;2023-07-30T02:12:59;15.90;95.40
46608;DHT22;32330;51.936;7.184;2023-07-30T02:15:26;15.90;95.40
46608;DHT22;32330;51.936;7.184;2023-07-30T02:17:53;15.90;95.50
46608;DHT22;32330;51.936;7.184;2023-07-30T02:20:20;15.80;95.10
46608;DHT22;32330;51.936;7.184;2023-07-30T02:22:47;15.80;94.50
46608;DHT22;32330;51.936;7.184;2023-07-30T02:25:14;15.80;94.70
46608;DHT22;32330;51.936;7.184;2023-07-30T02:27:41;15.80;94.60
46608;DHT22;32330;51.936;7.184;2023-07-30T02:30:10;15.70;94.70
46608;DHT22;32330;51.936;7.184;2023-07-30T02:32:37;15.70;94.70
46608;DHT22;32330;51.936;7.184;2023-07-30T02:35:04;15.70;94.80
46608;DHT22;32330;51.936;7.184;2023-07-30T02:37:31;15.70;94.30
46608;DHT22;32330;51.936;7.184;2023-07-30T02:39:58;15.70;94.30
46608;DHT22;32330;51.936;7.184;2023-07-30T02:42:27;15.60;95.10
46608;DHT22;32330;51.936;7.184;2023-07-30T02:44:54;15.60;95.20
46608;DHT22;32330;51.936;7.184;2023-07-30T02:47:22;15.60;95.80
46608;DHT22;32330;51.936;7.184;2023-07-30T02:49:49;15.50;95.70
46608;DHT22;32330;51.936;7.184;2023-07-30T02:52:16;15.50;95.60
46608;DHT22;32330;51.936;7.184;2023-07-30T02:54:43;15.40;96.20
46608;DHT22;32330;51.936;7.184;2023-07-30T02:57:10;15.40;95.60
46608;DHT22;32330;51.936;7.184;2023-07-30T02:59:38;15.40;94.80
46608;DHT22;32330;51.936;7.184;2023-07-30T03:02:06;15.40;94.80
46608;DHT22;32330;51.936;7.184;2023-07-30T03:04:34;15.40;94.30
46608;DHT22;32330;51.936;7.184;2023-07-30T03:07:02;15.40;94.10
46608;DHT22;32330;51.936;7.184;2023-07-30T03:09:28;15.30;94.80
46608;DHT22;32330;51.936;7.184;2023-07-30T03:11:55;15.30;94.60
46608;DHT22;32330;51.936;7.184;2023-07-30T03:14:22;15.30;94.10
46608;DHT22;32330;51.936;7.184;2023-07-30T03:16:49;15.30;94.60
46608;DHT22;32330;51.936;7.184;2023-07-30T03:19:16;15.20;93.90
46608;DHT22;32330;51.936;7.184;2023-07-30T03:21:45;15.20;94.80
46608;DHT22;32330;51.936;7.184;2023-07-30T03:24:12;15.20;94.20
46608;DHT22;32330;51.936;7.184;2023-07-30T03:26:39;15.20;94.40
46608;DHT22;32330;51.936;7.184;2023-07-30T03:29:06;15.20;94.00
46608;DHT22;32330;51.936;7.184;2023-07-30T03:31:33;15.10;94.50
46608;DHT22;32330;51.936;7.184;2023-07-30T03:34:00;15.20;94.90
46608;DHT22;32330;51.936;7.184;2023-07-30T03:36:27;15.20;94.50
46608;DHT22;32330;51.936;7.184;2023-07-30T03:38:55;15.10;94.50
46608;DHT22;32330;51.936;7.184;2023-07-30T03:41:22;15.10;95.10
46608;DHT22;32330;51.936;7.184;2023-07-30T03:43:49;15.10;94.70
46608;DHT22;32330;51.936;7.184;2023-07-30T03:46:16;15.10;95.00
46608;DHT22;32330;51.936;7.184;2023-07-30T03:48:43;15.00;95.00
46608;DHT22;32330;51.936;7.184;2023-07-30T03:51:10;15.10;94.90
46608;DHT22;32330;51.936;7.184;2023-07-30T03:53:37;15.10;95.70
46608;DHT22;32330;51.936;7.184;2023-07-30T03:56:06;15.00;95.60
46608;DHT22;32330;51.936;7.184;2023-07-30T03:58:33;15.00;95.70
46608;DHT22;32330;51.936;7.184;2023-07-30T04:01:01;15.00;95.30
46608;DHT22;32330;51.936;7.184;2023-07-30T04:03:28;15.00;96.60
46608;DHT22;32330;51.936;7.184;2023-07-30T04:05:54;15.00;96.70
46608;DHT22;32330;51.936;7.184;2023-07-30T04:08:21;15.00;96.80
46608;DHT22;32330;51.936;7.184;2023-07-30T04:10:48;15.00;97.30
46608;DHT22;32330;51.936;7.184;2023-07-30T04:13:17;15.00;98.00
46608;DHT22;32330;51.936;7.184;2023-07-30T04:15:46;15.00;98.20
46608;DHT22;32330;51.936;7.184;2023-07-30T04:18:13;15.00;97.90
46608;DHT22;32330;51.936;7.184;2023-07-30T04:20:40;15.00;97.50
46608;DHT22;32330;51.936;7.184;2023-07-30T04:23:08;15.10;98.50
46608;DHT22;32330;51.936;7.184;2023-07-30T04:25:35;15.10;99.20
46608;DHT22;32330;51.936;7.184;2023-07-30T04:28:02;15.10;98.10
46608;DHT22;32330;51.936;7.184;2023-07-30T04:30:30;15.20;98.90
46608;DHT22;32330;51.936;7.184;2023-07-30T04:32:57;15.20;98.90
46608;DHT22;32330;51.936;7.184;2023-07-30T04:35:25;15.20;98.00
46608;DHT22;32330;51.936;7.184;2023-07-30T04:37:52;15.20;97.60
46608;DHT22;32330;51.936;7.184;2023-07-30T04:40:19;15.20;98.30
46608;DHT22;32330;51.936;7.184;2023-07-30T04:42:46;15.20;98.90
46608;DHT22;32330;51.936;7.184;2023-07-30T04:45:13;15.20;99.90
46608;DHT22;32330;51.936;7.184;2023-07-30T04:47:45;15.20;99.90
46608;DHT22;32330;51.936;7.184;2023-07-30T04:50:12;15.20;99.70
46608;DHT22;32330;51.936;7.184;2023-07-30T04:52:39;15.30;99.90
46608;DHT22;32330;51.936;7.184;2023-07-30T04:55:07;15.30;99.90
46608;DHT22;32330;51.936;7.184;2023-07-30T04:57:34;15.30;99.90
46608;DHT22;32330;51.936;7.184;2023-07-30T05:00:01;15.30;99.90
46608;DHT22;32330;51.936;7.184;2023-07-30T05:02:30;15.30;99.90
46608;DHT22;32330;51.936;7.184;2023-07-30T05:04:58;15.30;99.90
46608;DHT22;32330;51.936;7.184;2023-07-30T05:07:25;15.30;99.90
46608;DHT22;32330;51.936;7.184;2023-07-30T05:09:52;15.30;99.90
46608;DHT22;32330;51.936;7.184;2023-07-30T05:12:19;15.30;99.90
46608;DHT22;32330;51.936;7.184;2023-07-30T05:14:46;15.40;99.90
46608;DHT22;32330;51.936;7.184;2023-07-30T05:17:13;15.30;99.90
46608;DHT22;32330;51.936;7.184;2023-07-30T05:19:41;15.30;99.90
46608;DHT22;32330;51.936;7.184;2023-07-30T05:22:10;15.40;99.90
46608;DHT22;32330;51.936;7.184;2023-07-30T05:24:43;15.40;99.90
46608;DHT22;32330;51.936;7.184;2023-07-30T05:27:19;15.40;99.90
46608;DHT22;32330;51.936;7.184;2023-07-30T05:29:48;15.40;99.90
46608;DHT22;32330;51.936;7.184;2023-07-30T05:32:21;15.50;99.90
46608;DHT22;32330;51.936;7.184;2023-07-30T05:35:00;15.50;99.90
46608;DHT22;32330;51.936;7.184;2023-07-30T05:37:39;15.50;99.90
46608;DHT22;32330;51.936;7.184;2023-07-30T05:40:07;15.60;99.90
46608;DHT22;32330;51.936;7.184;2023-07-30T05:42:36;15.60;99.90
46608;DHT22;32330;51.936;7.184;2023-07-30T05:45:03;15.60;99.90
46608;DHT22;32330;51.936;7.184;2023-07-30T05:47:30;15.70;99.90
46608;DHT22;32330;51.936;7.184;2023-07-30T05:49:58;15.70;99.90
46608;DHT22;32330;51.936;7.184;2023-07-30T05:52:25;15.80;99.90
46608;DHT22;32330;51.936;7.184;2023-07-30T05:54:53;15.70;99.90
46608;DHT22;32330;51.936;7.184;2023-07-30T05:57:20;15.70;99.90
46608;DHT22;32330;51.936;7.184;2023-07-30T05:59:47;15.70;99.90
46608;DHT22;32330;51.936;7.184;2023-07-30T06:02:14;15.70;99.90
46608;DHT22;32330;51.936;7.184;2023-07-30T06:04:41;15.70;99.90
46608;DHT22;32330;51.936;7.184;2023-07-30T06:07:09;15.80;99.90
46608;DHT22;32330;51.936;7.184;2023-07-30T06:13:00;15.80;99.90
46608;DHT22;32330;51.936;7.184;2023-07-30T06:16:00;15.80;99.90
46608;DHT22;32330;51.936;7.184;2023-07-30T06:21:33;16.00;99.90
46608;DHT22;32330;51.936;7.184;2023-07-30T06:24:00;16.00;99.90
46608;DHT22;32330;51.936;7.184;2023-07-30T06:26:27;16.00;99.90
46608;DHT22;32330;51.936;7.184;2023-07-30T06:28:56;16.10;99.90
46608;DHT22;32330;51.936;7.184;2023-07-30T06:31:23;16.10;99.90
46608;DHT22;32330;51.936;7.184;2023-07-30T06:33:50;16.10;99.90
46608;DHT22;32330;51.936;7.184;2023-07-30T06:36:17;16.10;99.90
46608;DHT22;32330;51.936;7.184;2023-07-30T06:38:44;16.20;99.90
46608;DHT22;32330;51.936;7.184;2023-07-30T06:41:11;16.20;99.90
46608;DHT22;32330;51.936;7.184;2023-07-30T06:43:38;16.20;99.90
46608;DHT22;32330;51.936;7.184;2023-07-30T06:46:06;16.30;99.90
46608;DHT22;32330;51.936;7.184;2023-07-30T06:48:33;16.30;99.90
46608;DHT22;32330;51.936;7.184;2023-07-30T06:51:00;16.40;99.90
46608;DHT22;32330;51.936;7.184;2023-07-30T06:53:27;16.30;99.90
46608;DHT22;32330;51.936;7.184;2023-07-30T06:55:54;16.30;99.90
46608;DHT22;32330;51.936;7.184;2023-07-30T06:58:21;16.40;99.90
46608;DHT22;32330;51.936;7.184;2023-07-30T07:00:48;16.30;99.90
46608;DHT22;32330;51.936;7.184;2023-07-30T07:03:17;16.40;99.90
46608;DHT22;32330;51.936;7.184;2023-07-30T07:05:44;16.40;99.90
46608;DHT22;32330;51.936;7.184;2023-07-30T07:08:11;16.40;99.90
46608;DHT22;32330;51.936;7.184;2023-07-30T07:10:38;16.50;99.90
46608;DHT22;32330;51.936;7.184;2023-07-30T07:13:05;16.50;99.90
46608;DHT22;32330;51.936;7.184;2023-07-30T07:15:32;16.50;99.90
46608;DHT22;32330;51.936;7.184;2023-07-30T07:17:59;16.50;99.90
46608;DHT22;32330;51.936;7.184;2023-07-30T07:20:27;16.60;99.90
46608;DHT22;32330;51.936;7.184;2023-07-30T07:22:54;16.60;99.90
46608;DHT22;32330;51.936;7.184;2023-07-30T07:25:21;16.70;99.90
46608;DHT22;32330;51.936;7.184;2023-07-30T07:27:48;16.70;99.90
46608;DHT22;32330;51.936;7.184;2023-07-30T07:30:14;16.70;99.90
46608;DHT22;32330;51.936;7.184;2023-07-30T07:32:41;16.70;99.90
46608;DHT22;32330;51.936;7.184;2023-07-30T07:35:09;16.60;99.90
46608;DHT22;32330;51.936;7.184;2023-07-30T07:37:37;16.60;99.90
46608;DHT22;32330;51.936;7.184;2023-07-30T07:40:05;16.70;99.90
46608;DHT22;32330;51.936;7.184;2023-07-30T07:42:34;16.70;99.90
46608;DHT22;32330;51.936;7.184;2023-07-30T07:45:01;16.80;99.90
46608;DHT22;32330;51.936;7.184;2023-07-30T07:47:29;16.80;99.90
46608;DHT22;32330;51.936;7.184;2023-07-30T07:49:56;16.90;99.90
46608;DHT22;32330;51.936;7.184;2023-07-30T07:52:23;17.00;99.30
46608;DHT22;32330;51.936;7.184;2023-07-30T07:54:52;16.90;99.70
46608;DHT22;32330;51.936;7.184;2023-07-30T07:57:19;17.00;98.40
46608;DHT22;32330;51.936;7.184;2023-07-30T07:59:46;17.10;98.80
46608;DHT22;32330;51.936;7.184;2023-07-30T08:02:13;17.20;99.30
46608;DHT22;32330;51.936;7.184;2023-07-30T08:04:39;17.20;96.80
46608;DHT22;32330;51.936;7.184;2023-07-30T08:07:06;17.20;97.90
46608;DHT22;32330;51.936;7.184;2023-07-30T08:09:33;17.30;97.00
46608;DHT22;32330;51.936;7.184;2023-07-30T08:12:02;17.30;94.90
46608;DHT22;32330;51.936;7.184;2023-07-30T08:14:29;17.30;95.50
46608;DHT22;32330;51.936;7.184;2023-07-30T08:16:56;17.30;95.50
46608;DHT22;32330;51.936;7.184;2023-07-30T08:19:23;17.40;94.80
46608;DHT22;32330;51.936;7.184;2023-07-30T08:21:51;17.30;93.50
46608;DHT22;32330;51.936;7.184;2023-07-30T08:24:18;17.40;92.90
46608;DHT22;32330;51.936;7.184;2023-07-30T08:26:45;17.40;93.90
46608;DHT22;32330;51.936;7.184;2023-07-30T08:29:14;17.60;94.00
46608;DHT22;32330;51.936;7.184;2023-07-30T08:31:41;17.80;93.60
46608;DHT22;32330;51.936;7.184;2023-07-30T08:34:08;17.80;83.90
46608;DHT22;32330;51.936;7.184;2023-07-30T08:36:35;17.80;78.20
46608;DHT22;32330;51.936;7.184;2023-07-30T08:39:03;17.90;81.10
46608;DHT22;32330;51.936;7.184;2023-07-30T08:41:30;18.10;77.30
46608;DHT22;32330;51.936;7.184;2023-07-30T08:43:58;18.20;72.00
46608;DHT22;32330;51.936;7.184;2023-07-30T08:46:27;18.30;66.50
46608;DHT22;32330;51.936;7.184;2023-07-30T08:48:54;18.30;59.20
46608;DHT22;32330;51.936;7.184;2023-07-30T08:51:23;18.30;61.20
46608;DHT22;32330;51.936;7.184;2023-07-30T08:53:51;18.40;63.50
46608;DHT22;32330;51.936;7.184;2023-07-30T08:56:19;18.40;57.30
46608;DHT22;32330;51.936;7.184;2023-07-30T08:58:46;18.50;53.60
46608;DHT22;32330;51.936;7.184;2023-07-30T09:01:16;18.50;42.20
46608;DHT22;32330;51.936;7.184;2023-07-30T09:03:46;18.70;44.40
46608;DHT22;32330;51.936;7.184;2023-07-30T09:06:16;19.20;44.30
46608;DHT22;32330;51.936;7.184;2023-07-30T09:08:43;19.80;35.90
46608;DHT22;32330;51.936;7.184;2023-07-30T09:11:10;19.80;3.40
46608;DHT22;32330;51.936;7.184;2023-07-30T09:13:37;19.90;5.20
46608;DHT22;32330;51.936;7.184;2023-07-30T09:16:09;20.00;1.00
46608;DHT22;32330;51.936;7.184;2023-07-30T09:18:40;19.80;1.00
46608;DHT22;32330;51.936;7.184;2023-07-30T09:21:10;19.70;1.00
46608;DHT22;32330;51.936;7.184;2023-07-30T09:23:40;19.50;1.00
46608;DHT22;32330;51.936;7.184;2023-07-30T09:26:08;19.80;1.00
46608;DHT22;32330;51.936;7.184;2023-07-30T09:28:35;19.90;1.00
46608;DHT22;32330;51.936;7.184;2023-07-30T09:31:04;19.90;1.00
46608;DHT22;32330;51.936;7.184;2023-07-30T09:33:31;20.30;1.00
46608;DHT22;32330;51.936;7.184;2023-07-30T09:36:01;20.30;99.90
46608;DHT22;32330;51.936;7.184;2023-07-30T09:38:30;20.20;99.90
46608;DHT22;32330;51.936;7.184;2023-07-30T09:41:00;20.10;99.90
46608;DHT22;32330;51.936;7.184;2023-07-30T09:43:29;20.00;99.90
46608;DHT22;32330;51.936;7.184;2023-07-30T09:46:01;20.40;99.90
46608;DHT22;32330;51.936;7.184;2023-07-30T09:48:29;20.80;99.90
46608;DHT22;32330;51.936;7.184;2023-07-30T09:50:58;20.80;99.90
46608;DHT22;32330;51.936;7.184;2023-07-30T09:53:26;20.60;99.90
46608;DHT22;32330;51.936;7.184;2023-07-30T09:55:56;20.60;99.90
46608;DHT22;32330;51.936;7.184;2023-07-30T09:58:23;20.60;99.90
46608;DHT22;32330;51.936;7.184;2023-07-30T10:00:51;20.60;99.90
46608;DHT22;32330;51.936;7.184;2023-07-30T10:03:19;20.80;99.90
46608;DHT22;32330;51.936;7.184;2023-07-30T10:05:47;20.90;99.90
46608;DHT22;32330;51.936;7.184;2023-07-30T10:08:23;21.10;99.90
46608;DHT22;32330;51.936;7.184;2023-07-30T10:10:52;21.20;99.90
46608;DHT22;32330;51.936;7.184;2023-07-30T10:13:21;21.30;99.90
46608;DHT22;32330;51.936;7.184;2023-07-30T10:15:49;21.30;88.80
46608;DHT22;32330;51.936;7.184;2023-07-30T10:18:16;21.30;1.00
46608;DHT22;32330;51.936;7.184;2023-07-30T10:20:52;21.30;25.50
46608;DHT22;32330;51.936;7.184;2023-07-30T10:23:19;21.20;99.90
46608;DHT22;32330;51.936;7.184;2023-07-30T10:25:48;21.50;99.90
46608;DHT22;32330;51.936;7.184;2023-07-30T10:28:33;21.40;99.90
46608;DHT22;32330;51.936;7.184;2023-07-30T10:31:04;21.60;99.90
46608;DHT22;32330;51.936;7.184;2023-07-30T10:33:47;21.60;99.90
46608;DHT22;32330;51.936;7.184;2023-07-30T10:38:54;21.10;99.90
46608;DHT22;32330;51.936;7.184;2023-07-30T10:41:21;21.00;99.90
46608;DHT22;32330;51.936;7.184;2023-07-30T10:43:50;21.00;99.90
46608;DHT22;32330;51.936;7.184;2023-07-30T10:46:19;21.00;99.90
46608;DHT22;32330;51.936;7.184;2023-07-30T10:48:48;21.00;99.90
46608;DHT22;32330;51.936;7.184;2023-07-30T10:51:16;21.10;99.90
46608;DHT22;32330;51.936;7.184;2023-07-30T10:53:43;21.10;99.90
46608;DHT22;32330;51.936;7.184;2023-07-30T10:56:10;21.10;99.90
46608;DHT22;32330;51.936;7.184;2023-07-30T10:58:39;21.40;99.90
46608;DHT22;32330;51.936;7.184;2023-07-30T11:01:08;21.40;99.90
46608;DHT22;32330;51.936;7.184;2023-07-30T11:03:35;21.50;99.90
46608;DHT22;32330;51.936;7.184;2023-07-30T11:06:03;21.70;99.90
46608;DHT22;32330;51.936;7.184;2023-07-30T11:08:35;21.70;99.90
46608;DHT22;32330;51.936;7.184;2023-07-30T11:11:03;22.00;1.00
46608;DHT22;32330;51.936;7.184;2023-07-30T11:13:35;22.00;99.90
46608;DHT22;32330;51.936;7.184;2023-07-30T11:16:02;22.30;99.90
46608;DHT22;32330;51.936;7.184;2023-07-30T11:18:32;22.20;99.90
46608;DHT22;32330;51.936;7.184;2023-07-30T11:21:03;22.40;99.90
46608;DHT22;32330;51.936;7.184;2023-07-30T11:23:30;22.40;10.20
46608;DHT22;32330;51.936;7.184;2023-07-30T11:25:57;22.60;99.90
46608;DHT22;32330;51.936;7.184;2023-07-30T11:28:28;22.70;99.90
46608;DHT22;32330;51.936;7.184;2023-07-30T11:30:58;22.90;99.90
46608;DHT22;32330;51.936;7.184;2023-07-30T11:33:26;23.10;99.90
46608;DHT22;32330;51.936;7.184;2023-07-30T11:35:54;23.00;99.90
46608;DHT22;32330;51.936;7.184;2023-07-30T11:38:23;23.20;1.00
46608;DHT22;32330;51.936;7.184;2023-07-30T11:40:50;23.00;99.90
46608;DHT22;32330;51.936;7.184;2023-07-30T11:43:18;22.70;99.90
46608;DHT22;32330;51.936;7.184;2023-07-30T11:45:45;22.70;99.90
46608;DHT22;32330;51.936;7.184;2023-07-30T11:48:12;22.50;99.90
46608;DHT22;32330;51.936;7.184;2023-07-30T11:50:45;22.50;99.90
46608;DHT22;32330;51.936;7.184;2023-07-30T11:53:13;22.40;99.90
46608;DHT22;32330;51.936;7.184;2023-07-30T11:55:41;22.30;99.90
46608;DHT22;32330;51.936;7.184;2023-07-30T11:58:10;22.20;99.90
46608;DHT22;32330;51.936;7.184;2023-07-30T12:00:37;22.00;99.90
46608;DHT22;32330;51.936;7.184;2023-07-30T12:03:05;21.80;99.90
46608;DHT22;32330;51.936;7.184;2023-07-30T12:05:33;21.50;99.90
46608;DHT22;32330;51.936;7.184;2023-07-30T12:08:00;21.40;99.90
46608;DHT22;32330;51.936;7.184;2023-07-30T12:10:41;21.30;99.90
46608;DHT22;32330;51.936;7.184;2023-07-30T12:13:12;21.10;99.90
46608;DHT22;32330;51.936;7.184;2023-07-30T12:15:43;21.00;99.90
46608;DHT22;32330;51.936;7.184;2023-07-30T12:18:12;21.00;99.90
46608;DHT22;32330;51.936;7.184;2023-07-30T12:20:45;21.10;99.90
46608;DHT22;32330;51.936;7.184;2023-07-30T12:23:13;20.80;1.00
46608;DHT22;32330;51.936;7.184;2023-07-30T12:25:47;20.60;99.90
46608;DHT22;32330;51.936;7.184;2023-07-30T12:28:19;20.70;1.00
46608;DHT22;32330;51.936;7.184;2023-07-30T12:30:47;20.70;96.30
46608;DHT22;32330;51.936;7.184;2023-07-30T12:33:17;20.40;1.00
46608;DHT22;32330;51.936;7.184;2023-07-30T12:35:46;20.40;99.90
46608;DHT22;32330;51.936;7.184;2023-07-30T12:38:18;20.30;99.90
46608;DHT22;32330;51.936;7.184;2023-07-30T12:40:52;20.50;99.90
46608;DHT22;32330;51.936;7.184;2023-07-30T12:43:19;20.70;99.90
46608;DHT22;32330;51.936;7.184;2023-07-30T12:45:47;20.70;99.90
46608;DHT22;32330;51.936;7.184;2023-07-30T12:48:17;20.70;99.90
46608;DHT22;32330;51.936;7.184;2023-07-30T12:50:44;20.80;99.90
46608;DHT22;32330;51.936;7.184;2023-07-30T12:53:12;21.30;99.90
46608;DHT22;32330;51.936;7.184;2023-07-30T12:55:39;21.40;99.90
46608;DHT22;32330;51.936;7.184;2023-07-30T12:58:09;21.40;80.90
46608;DHT22;32330;51.936;7.184;2023-07-30T13:00:36;21.80;1.00
46608;DHT22;32330;51.936;7.184;2023-07-30T13:03:04;22.10;1.00
46608;DHT22;32330;51.936;7.184;2023-07-30T13:05:31;22.30;99.90
46608;DHT22;32330;51.936;7.184;2023-07-30T13:07:59;22.40;99.90
46608;DHT22;32330;51.936;7.184;2023-07-30T13:10:32;22.50;99.90
46608;DHT22;32330;51.936;7.184;2023-07-30T13:13:03;22.40;99.90
46608;DHT22;32330;51.936;7.184;2023-07-30T13:15:33;22.30;99.90
46608;DHT22;32330;51.936;7.184;2023-07-30T13:18:00;22.50;99.90
46608;DHT22;32330;51.936;7.184;2023-07-30T13:20:30;22.90;99.90
46608;DHT22;32330;51.936;7.184;2023-07-30T13:22:58;22.80;99.90
46608;DHT22;32330;51.936;7.184;2023-07-30T13:25:25;22.60;99.90
46608;DHT22;32330;51.936;7.184;2023-07-30T13:27:52;22.30;92.70
46608;DHT22;32330;51.936;7.184;2023-07-30T13:30:19;22.20;21.10
46608;DHT22;32330;51.936;7.184;2023-07-30T13:32:50;22.90;99.90
46608;DHT22;32330;51.936;7.184;2023-07-30T13:35:17;23.20;97.40
46608;DHT22;32330;51.936;7.184;2023-07-30T13:37:44;23.30;11.60
46608;DHT22;32330;51.936;7.184;2023-07-30T13:40:11;23.40;3.90
46608;DHT22;32330;51.936;7.184;2023-07-30T13:42:39;23.70;99.90
46608;DHT22;32330;51.936;7.184;2023-07-30T13:45:06;23.20;99.90
46608;DHT22;32330;51.936;7.184;2023-07-30T13:47:43;22.90;1.00
46608;DHT22;32330;51.936;7.184;2023-07-30T13:50:13;22.80;80.50
46608;DHT22;32330;51.936;7.184;2023-07-30T13:52:40;22.70;53.00
46608;DHT22;32330;51.936;7.184;2023-07-30T13:55:13;22.80;99.90
46608;DHT22;32330;51.936;7.184;2023-07-30T13:57:54;23.00;99.90
46608;DHT22;32330;51.936;7.184;2023-07-30T14:00:25;23.10;94.60
46608;DHT22;32330;51.936;7.184;2023-07-30T14:02:56;23.00;83.50
46608;DHT22;32330;51.936;7.184;2023-07-30T14:05:31;22.50;66.90
46608;DHT22;32330;51.936;7.184;2023-07-30T14:08:03;22.40;99.90
46608;DHT22;32330;51.936;7.184;2023-07-30T14:10:30;22.30;99.90
46608;DHT22;32330;51.936;7.184;2023-07-30T14:12:58;22.10;99.90
46608;DHT22;32330;51.936;7.184;2023-07-30T14:15:25;22.00;99.90
46608;DHT22;32330;51.936;7.184;2023-07-30T14:17:53;22.10;99.90
46608;DHT22;32330;51.936;7.184;2023-07-30T14:20:25;22.70;31.10
46608;DHT22;32330;51.936;7.184;2023-07-30T14:22:54;23.20;99.90
46608;DHT22;32330;51.936;7.184;2023-07-30T14:25:22;23.40;86.30
46608;DHT22;32330;51.936;7.184;2023-07-30T14:27:49;23.40;53.30
46608;DHT22;32330;51.936;7.184;2023-07-30T14:30:18;23.10;45.20
46608;DHT22;32330;51.936;7.184;2023-07-30T14:32:47;23.10;99.90
46608;DHT22;32330;51.936;7.184;2023-07-30T14:35:14;23.30;99.90
46608;DHT22;32330;51.936;7.184;2023-07-30T14:37:42;23.60;99.90
46608;DHT22;32330;51.936;7.184;2023-07-30T14:40:11;23.70;99.90
46608;DHT22;32330;51.936;7.184;2023-07-30T14:42:38;23.70;99.90
46608;DHT22;32330;51.936;7.184;2023-07-30T14:45:09;23.60;12.40
46608;DHT22;32330;51.936;7.184;2023-07-30T14:47:39;23.90;99.90
46608;DHT22;32330;51.936;7.184;2023-07-30T14:50:07;23.90;1.00
46608;DHT22;32330;51.936;7.184;2023-07-30T14:52:34;24.00;90.30
46608;DHT22;32330;51.936;7.184;2023-07-30T14:55:01;24.30;1.00
46608;DHT22;32330;51.936;7.184;2023-07-30T14:57:30;23.90;99.90
46608;DHT22;32330;51.936;7.184;2023-07-30T14:59:59;23.40;99.90
46608;DHT22;32330;51.936;7.184;2023-07-30T15:02:29;23.00;99.90
46608;DHT22;32330;51.936;7.184;2023-07-30T15:04:56;23.00;99.90
46608;DHT22;32330;51.936;7.184;2023-07-30T15:07:23;23.30;99.90
46608;DHT22;32330;51.936;7.184;2023-07-30T15:09:52;23.80;99.90
46608;DHT22;32330;51.936;7.184;2023-07-30T15:12:19;23.30;99.90
46608;DHT22;32330;51.936;7.184;2023-07-30T15:14:52;23.20;99.90
46608;DHT22;32330;51.936;7.184;2023-07-30T15:17:20;23.00;65.60
46608;DHT22;32330;51.936;7.184;2023-07-30T15:19:47;22.90;20.30
46608;DHT22;32330;51.936;7.184;2023-07-30T15:22:18;22.70;99.90
46608;DHT22;32330;51.936;7.184;2023-07-30T15:24:45;22.70;1.00
46608;DHT22;32330;51.936;7.184;2023-07-30T15:27:14;22.70;1.00
46608;DHT22;32330;51.936;7.184;2023-07-30T15:29:41;22.60;1.00
46608;DHT22;32330;51.936;7.184;2023-07-30T15:32:10;22.50;1.00
46608;DHT22;32330;51.936;7.184;2023-07-30T15:34:38;22.40;1.00
46608;DHT22;32330;51.936;7.184;2023-07-30T15:37:19;22.40;1.00
46608;DHT22;32330;51.936;7.184;2023-07-30T15:39:47;22.30;1.00
46608;DHT22;32330;51.936;7.184;2023-07-30T15:42:18;22.60;99.90
46608;DHT22;32330;51.936;7.184;2023-07-30T15:44:51;22.70;29.70
46608;DHT22;32330;51.936;7.184;2023-07-30T15:47:22;22.30;10.30
46608;DHT22;32330;51.936;7.184;2023-07-30T15:49:50;22.10;1.00